Time;durP1;ratioP1;P1;durP2;ratioP2;P2;SDS_P1;SDS_P2;PMS_P1;PMS_P2;Temp;Humidity;BMP_temperature;BMP_pressure;BME280_temperature;BME280_humidity;BME280_pressure;Samples;Min_cycle;Max_cycle;Signal;HPM_P1;HPM_P2
2021/03/25 00:00:38;;;;;;;20.10;14.85;;;12.50;72.70;;;;;;4963868;28;20034;-80
2021/03/25 00:03:10;;;;;;;20.45;15.20;;;12.40;72.70;;;;;;4966121;28;20031;-81
2021/03/25 00:05:35;;;;;;;19.55;15.93;;;12.40;72.80;;;;;;4958437;28;20036;-80
2021/03/25 00:08:05;;;;;;;20.23;15.40;;;12.40;72.80;;;;;;4954715;28;20486;-80
2021/03/25 00:10:34;;;;;;;17.90;13.88;;;12.40;72.90;;;;;;4954696;28;20047;-80
2021/03/25 00:13:00;;;;;;;20.60;15.00;;;12.40;72.90;;;;;;4945905;28;20023;-81
2021/03/25 00:15:27;;;;;;;21.55;15.02;;;12.40;72.90;;;;;;4946642;29;20035;-81
2021/03/25 00:17:53;;;;;;;21.10;14.93;;;12.40;73.00;;;;;;4935691;29;20030;-81
2021/03/25 00:20:20;;;;;;;19.00;15.10;;;12.30;72.90;;;;;;4938364;29;20031;-80
2021/03/25 00:22:46;;;;;;;20.55;15.48;;;12.30;72.90;;;;;;4954024;28;20047;-81
2021/03/25 00:25:17;;;;;;;21.35;15.43;;;12.30;72.90;;;;;;4964446;28;20130;-81
2021/03/25 00:27:42;;;;;;;19.40;15.00;;;12.30;72.90;;;;;;4958406;28;20125;-80
2021/03/25 00:30:12;;;;;;;19.25;14.45;;;12.30;72.90;;;;;;4935453;29;20527;-80
2021/03/25 00:32:38;;;;;;;20.25;15.65;;;12.30;73.00;;;;;;4954486;28;20090;-81
2021/03/25 00:35:06;;;;;;;20.10;14.88;;;12.20;72.90;;;;;;4959363;28;20473;-80
2021/03/25 00:37:31;;;;;;;18.88;15.30;;;12.20;73.00;;;;;;4960325;28;20062;-80
2021/03/25 00:39:57;;;;;;;18.80;14.82;;;12.20;73.00;;;;;;4943151;28;20059;-81
2021/03/25 00:42:23;;;;;;;19.02;14.55;;;12.20;73.00;;;;;;4955274;28;20037;-81
2021/03/25 00:44:49;;;;;;;19.63;15.00;;;12.20;73.00;;;;;;4937862;29;20146;-81
2021/03/25 00:47:15;;;;;;;19.27;15.27;;;12.10;73.00;;;;;;4953513;28;20105;-81
2021/03/25 00:49:41;;;;;;;20.63;15.85;;;12.10;73.10;;;;;;4937870;29;20032;-81
2021/03/25 00:52:07;;;;;;;20.00;14.88;;;12.10;73.10;;;;;;4953994;28;20491;-81
2021/03/25 00:54:33;;;;;;;21.15;15.55;;;12.10;73.10;;;;;;4939448;29;20036;-80
2021/03/25 00:56:59;;;;;;;19.15;15.00;;;12.10;73.10;;;;;;4944112;28;20050;-81
2021/03/25 00:59:24;;;;;;;20.88;15.75;;;12.10;73.20;;;;;;4957199;28;20052;-80
2021/03/25 01:01:50;;;;;;;20.63;15.93;;;12.10;73.30;;;;;;4926732;29;20035;-81
2021/03/25 01:04:17;;;;;;;19.77;15.18;;;12.10;73.30;;;;;;4956027;28;20042;-81
2021/03/25 01:06:42;;;;;;;18.45;14.63;;;12.00;73.20;;;;;;4957447;28;20532;-80
2021/03/25 01:09:25;;;;;;;19.30;15.50;;;12.00;73.20;;;;;;4937341;28;20062;-81
2021/03/25 01:11:52;;;;;;;18.45;14.10;;;12.00;73.40;;;;;;4961662;28;20065;-80
2021/03/25 01:14:22;;;;;;;20.95;14.52;;;12.00;73.30;;;;;;4940140;28;20039;-81
2021/03/25 01:16:51;;;;;;;19.33;14.95;;;12.00;73.30;;;;;;4953770;28;20042;-80
2021/03/25 01:19:27;;;;;;;20.70;15.23;;;12.00;73.30;;;;;;4953982;28;20476;-80
2021/03/25 01:21:54;;;;;;;21.17;15.35;;;11.90;73.30;;;;;;4969460;28;20027;-81
2021/03/25 01:24:22;;;;;;;19.08;14.77;;;11.90;73.30;;;;;;4952907;28;20023;-81
2021/03/25 01:26:49;;;;;;;19.88;14.77;;;11.90;73.30;;;;;;4937373;29;20027;-81
2021/03/25 01:29:19;;;;;;;20.88;15.40;;;11.90;73.40;;;;;;4950501;28;20043;-80
2021/03/25 01:31:45;;;;;;;18.77;14.43;;;11.90;74.10;;;;;;4955693;28;20043;-80
2021/03/25 01:34:16;;;;;;;18.17;14.57;;;11.80;73.50;;;;;;4937519;29;20476;-81
2021/03/25 01:36:41;;;;;;;18.98;14.70;;;11.80;73.50;;;;;;4969592;28;20035;-81
2021/03/25 01:39:07;;;;;;;20.95;15.43;;;11.80;73.50;;;;;;4952972;29;20445;-80
2021/03/25 01:41:37;;;;;;;18.50;14.43;;;11.80;73.50;;;;;;4957026;28;20032;-81
2021/03/25 01:44:05;;;;;;;20.15;14.60;;;11.80;73.50;;;;;;4920839;29;20521;-81
2021/03/25 01:46:37;;;;;;;20.52;15.10;;;11.80;73.60;;;;;;4953452;28;20079;-81
2021/03/25 01:49:09;;;;;;;18.60;14.88;;;11.80;73.60;;;;;;4954558;28;20028;-80
2021/03/25 01:51:52;;;;;;;22.02;16.05;;;11.70;73.60;;;;;;4955215;28;20030;-81
2021/03/25 01:54:50;;;;;;;19.67;14.55;;;11.70;73.70;;;;;;4943231;29;20058;-81
2021/03/25 01:57:30;;;;;;;19.52;14.95;;;11.70;73.60;;;;;;4940942;29;20429;-81
2021/03/25 02:00:07;;;;;;;19.02;15.00;;;11.70;73.70;;;;;;4942339;29;20023;-80
2021/03/25 02:03:16;;;;;;;19.73;14.52;;;11.70;73.70;;;;;;4926262;29;20070;-80
2021/03/25 02:06:11;;;;;;;18.85;13.50;;;11.70;73.70;;;;;;4938070;29;20048;-80
2021/03/25 02:08:50;;;;;;;19.55;15.07;;;11.60;73.70;;;;;;4941231;29;20588;-81
2021/03/25 02:11:21;;;;;;;19.65;15.00;;;11.60;73.70;;;;;;4938330;29;20466;-80
2021/03/25 02:13:53;;;;;;;20.58;15.73;;;11.60;73.70;;;;;;4937407;29;20511;-80
2021/03/25 02:16:24;;;;;;;21.27;15.38;;;11.60;73.70;;;;;;4939685;29;20031;-81
2021/03/25 02:19:36;;;;;;;18.73;14.60;;;11.60;73.90;;;;;;4938731;29;20136;-81
2021/03/25 02:22:18;;;;;;;19.52;14.70;;;11.50;73.70;;;;;;4937958;29;20389;-80
2021/03/25 02:24:57;;;;;;;19.83;14.77;;;11.50;73.70;;;;;;4952125;29;20035;-80
2021/03/25 02:27:47;;;;;;;19.25;15.02;;;11.50;73.70;;;;;;4961040;28;20240;-80
2021/03/25 02:30:25;;;;;;;20.02;14.73;;;11.50;73.70;;;;;;4943061;29;20027;-81
2021/03/25 02:33:01;;;;;;;18.90;14.97;;;11.50;73.80;;;;;;4958124;28;20445;-80
2021/03/25 02:35:41;;;;;;;18.33;14.07;;;11.50;73.70;;;;;;4923971;29;20067;-80
2021/03/25 02:38:13;;;;;;;20.25;15.38;;;11.50;73.80;;;;;;4953558;28;20032;-81
2021/03/25 02:40:47;;;;;;;20.95;15.27;;;11.50;73.70;;;;;;4936896;29;20023;-80
2021/03/25 02:43:19;;;;;;;20.27;15.02;;;11.50;73.80;;;;;;4955829;28;20043;-80
2021/03/25 02:46:10;;;;;;;18.75;14.40;;;11.40;73.80;;;;;;4942710;28;20118;-81
2021/03/25 02:48:41;;;;;;;19.27;15.30;;;11.40;73.80;;;;;;4969483;28;20038;-80
2021/03/25 02:51:43;;;;;;;20.42;15.63;;;11.40;73.70;;;;;;4955212;28;20023;-81
2021/03/25 02:54:09;;;;;;;18.73;14.43;;;11.40;73.80;;;;;;4943190;28;20046;-80
2021/03/25 02:56:46;;;;;;;21.02;15.80;;;11.40;73.70;;;;;;4931926;28;20038;-81
2021/03/25 02:59:21;;;;;;;21.05;15.85;;;11.40;73.80;;;;;;4956162;28;20438;-81
2021/03/25 03:01:52;;;;;;;19.38;15.35;;;11.40;73.80;;;;;;4939648;29;20035;-81
2021/03/25 03:04:30;;;;;;;19.92;15.45;;;11.40;73.80;;;;;;4961067;28;20035;-81
2021/03/25 03:07:06;;;;;;;20.25;15.38;;;11.40;73.90;;;;;;4957025;28;20117;-80
2021/03/25 03:09:40;;;;;;;19.20;15.40;;;11.40;73.80;;;;;;4940298;29;20239;-81
2021/03/25 03:12:15;;;;;;;19.65;14.73;;;11.40;73.80;;;;;;4955272;28;20163;-80
2021/03/25 03:14:56;;;;;;;22.20;15.77;;;11.30;73.80;;;;;;4933606;28;20038;-81
2021/03/25 03:17:37;;;;;;;21.63;15.32;;;11.30;73.80;;;;;;4939817;28;20034;-81
2021/03/25 03:20:39;;;;;;;18.50;14.50;;;11.30;73.80;;;;;;4951897;28;20039;-80
2021/03/25 03:23:26;;;;;;;21.13;15.68;;;11.30;73.80;;;;;;4957381;28;20045;-80
2021/03/25 03:25:56;;;;;;;21.90;15.75;;;11.30;73.80;;;;;;4955169;28;20038;-81
2021/03/25 03:28:26;;;;;;;19.23;14.95;;;11.30;73.90;;;;;;4955774;28;20041;-81
2021/03/25 03:31:01;;;;;;;20.92;15.40;;;11.30;73.90;;;;;;4960355;28;20086;-80
2021/03/25 03:33:38;;;;;;;20.38;15.68;;;11.30;73.90;;;;;;4961648;28;20163;-80
2021/03/25 03:36:05;;;;;;;20.27;15.27;;;11.30;73.90;;;;;;4951469;28;20033;-81
2021/03/25 03:38:41;;;;;;;21.77;15.30;;;11.20;73.80;;;;;;4955729;28;20024;-81
2021/03/25 03:41:25;;;;;;;18.88;15.45;;;11.20;73.90;;;;;;4942640;28;20086;-80
2021/03/25 03:43:53;;;;;;;19.63;16.13;;;11.30;73.90;;;;;;4956021;28;20111;-80
2021/03/25 03:46:24;;;;;;;21.08;15.80;;;11.20;73.90;;;;;;4957498;28;20042;-80
2021/03/25 03:49:11;;;;;;;20.00;15.32;;;11.20;73.90;;;;;;4964659;28;20487;-81
2021/03/25 03:51:58;;;;;;;20.17;15.32;;;11.30;74.00;;;;;;4939114;29;20061;-81
2021/03/25 03:54:25;;;;;;;19.35;15.35;;;11.20;73.90;;;;;;4950681;28;20539;-80
2021/03/25 03:57:01;;;;;;;21.80;16.25;;;11.20;73.90;;;;;;4938936;29;20036;-80
2021/03/25 03:59:42;;;;;;;21.60;16.23;;;11.20;74.00;;;;;;4946776;28;20042;-81
2021/03/25 04:02:18;;;;;;;20.23;15.75;;;11.20;73.90;;;;;;4960873;28;20084;-80
2021/03/25 04:04:54;;;;;;;19.65;15.13;;;11.20;73.90;;;;;;4949828;28;20035;-80
2021/03/25 04:07:45;;;;;;;20.45;16.13;;;11.20;73.90;;;;;;4948045;28;20078;-80
2021/03/25 04:10:42;;;;;;;21.75;15.65;;;11.20;73.90;;;;;;4948736;28;20684;-81
2021/03/25 04:13:15;;;;;;;20.67;15.98;;;11.20;74.00;;;;;;4940374;28;20028;-80
2021/03/25 04:15:48;;;;;;;21.55;16.77;;;11.20;73.90;;;;;;4954546;28;20472;-81
2021/03/25 04:18:42;;;;;;;20.85;15.88;;;11.20;74.00;;;;;;4954364;28;20033;-81
2021/03/25 04:21:37;;;;;;;20.50;15.45;;;11.20;74.10;;;;;;4949774;28;20430;-81
2021/03/25 04:24:09;;;;;;;19.58;14.98;;;11.20;74.00;;;;;;4958046;28;20027;-80
2021/03/25 04:26:43;;;;;;;21.98;16.38;;;11.20;74.00;;;;;;4939224;28;20054;-81
2021/03/25 04:29:27;;;;;;;20.98;15.45;;;11.20;74.10;;;;;;4964503;28;20518;-81
2021/03/25 04:31:53;;;;;;;20.27;15.57;;;11.20;74.10;;;;;;4957494;28;20034;-80
2021/03/25 04:34:19;;;;;;;21.58;16.52;;;11.20;74.00;;;;;;4943202;28;20653;-80
2021/03/25 04:36:47;;;;;;;21.45;16.02;;;11.10;74.00;;;;;;4946421;28;20174;-81
2021/03/25 04:39:16;;;;;;;21.83;16.05;;;11.20;74.80;;;;;;4977311;28;20388;-80
2021/03/25 04:41:44;;;;;;;22.70;17.70;;;11.10;74.10;;;;;;4969518;28;20476;-80
2021/03/25 04:44:48;;;;;;;21.27;17.00;;;11.20;74.10;;;;;;4960685;28;20513;-81
2021/03/25 04:47:20;;;;;;;21.02;16.05;;;11.10;74.20;;;;;;4955413;28;20030;-80
2021/03/25 04:50:01;;;;;;;21.08;16.80;;;11.20;74.10;;;;;;4973185;28;20041;-81
2021/03/25 04:52:30;;;;;;;21.02;16.48;;;11.10;74.00;;;;;;4955588;28;20023;-81
2021/03/25 04:55:06;;;;;;;23.08;17.35;;;11.10;74.10;;;;;;4940649;28;20031;-81
2021/03/25 04:57:35;;;;;;;21.83;17.08;;;11.10;74.10;;;;;;4959670;28;20037;-82
2021/03/25 05:00:09;;;;;;;20.83;16.38;;;11.10;74.10;;;;;;4953677;28;20392;-79
2021/03/25 05:02:37;;;;;;;22.23;16.38;;;11.10;74.10;;;;;;4953756;28;20381;-79
2021/03/25 05:05:03;;;;;;;21.08;16.02;;;11.10;74.10;;;;;;4944287;28;20023;-79
2021/03/25 05:07:33;;;;;;;21.45;16.20;;;11.10;74.10;;;;;;4952503;28;20023;-79
2021/03/25 05:09:59;;;;;;;21.77;17.20;;;11.10;74.10;;;;;;4954546;28;20119;-79
2021/03/25 05:12:26;;;;;;;20.13;16.73;;;11.10;74.10;;;;;;4954292;28;20026;-79
2021/03/25 05:15:03;;;;;;;24.20;17.38;;;11.10;74.10;;;;;;4953067;28;20040;-79
2021/03/25 05:17:31;;;;;;;21.42;16.40;;;11.10;74.10;;;;;;4952929;28;20027;-78
2021/03/25 05:20:16;;;;;;;21.30;16.50;;;11.10;74.10;;;;;;4969084;28;20092;-79
2021/03/25 05:23:09;;;;;;;21.65;16.55;;;11.10;74.20;;;;;;4950018;28;20034;-79
2021/03/25 05:25:48;;;;;;;22.10;15.88;;;11.10;74.20;;;;;;4959232;28;20038;-79
2021/03/25 05:28:59;;;;;;;22.42;16.80;;;11.10;74.10;;;;;;4967385;28;20020;-79
2021/03/25 05:31:28;;;;;;;20.63;15.95;;;11.00;74.20;;;;;;4949624;28;20050;-78
2021/03/25 05:33:57;;;;;;;21.63;16.40;;;11.10;74.10;;;;;;4952936;28;20039;-79
2021/03/25 05:36:24;;;;;;;23.10;17.52;;;11.10;74.10;;;;;;4953923;28;20323;-79
2021/03/25 05:38:49;;;;;;;21.65;16.30;;;11.00;74.10;;;;;;4937085;28;20038;-79
2021/03/25 05:41:43;;;;;;;22.08;16.80;;;11.00;74.10;;;;;;4933822;29;20039;-79
2021/03/25 05:44:46;;;;;;;21.45;16.55;;;11.00;74.20;;;;;;4936805;29;20040;-79
2021/03/25 05:47:40;;;;;;;22.40;17.05;;;11.00;74.20;;;;;;4957459;28;20030;-79
2021/03/25 05:50:43;;;;;;;22.20;17.25;;;11.00;74.20;;;;;;4936312;29;20432;-79
2021/03/25 05:53:27;;;;;;;21.55;17.23;;;11.00;74.20;;;;;;4961275;28;20031;-79
2021/03/25 05:56:12;;;;;;;21.40;16.05;;;11.00;74.20;;;;;;4956816;28;20027;-79
2021/03/25 05:58:55;;;;;;;22.00;16.77;;;11.00;74.20;;;;;;4957786;28;20031;-77
2021/03/25 06:01:28;;;;;;;21.88;17.40;;;11.00;74.30;;;;;;4963523;28;20058;-79
2021/03/25 06:04:07;;;;;;;22.38;17.20;;;11.00;74.20;;;;;;4960768;28;20431;-80
2021/03/25 06:07:00;;;;;;;21.27;17.30;;;11.00;74.30;;;;;;4940936;28;20424;-79
2021/03/25 06:09:32;;;;;;;22.60;17.08;;;10.90;74.30;;;;;;4947413;28;20467;-81
2021/03/25 06:12:12;;;;;;;23.25;17.80;;;10.90;74.20;;;;;;4956189;28;20046;-82
2021/03/25 06:15:01;;;;;;;24.13;17.65;;;10.90;74.30;;;;;;4954508;28;20043;-79
2021/03/25 06:17:49;;;;;;;23.20;17.92;;;10.90;74.30;;;;;;4951987;28;20031;-79
2021/03/25 06:20:18;;;;;;;23.23;17.92;;;10.90;74.40;;;;;;4945597;29;20054;-79
2021/03/25 06:23:02;;;;;;;23.92;17.83;;;10.90;74.20;;;;;;4952222;28;20035;-79
2021/03/25 06:25:47;;;;;;;24.38;18.15;;;10.90;74.30;;;;;;4953360;28;20034;-79
2021/03/25 06:28:28;;;;;;;23.00;17.15;;;10.80;74.30;;;;;;4968526;28;20473;-79
2021/03/25 06:31:29;;;;;;;22.55;16.92;;;10.80;74.30;;;;;;4963594;28;20066;-82
2021/03/25 06:34:27;;;;;;;20.90;16.92;;;10.80;74.30;;;;;;4957825;28;20041;-81
2021/03/25 06:37:01;;;;;;;21.35;16.70;;;10.80;74.30;;;;;;4955249;28;20130;-82
2021/03/25 06:39:41;;;;;;;21.38;16.67;;;10.80;74.30;;;;;;4956218;28;20038;-81
2021/03/25 06:42:22;;;;;;;19.80;16.00;;;10.80;74.30;;;;;;4956325;28;20484;-81
2021/03/25 06:45:04;;;;;;;21.92;16.67;;;10.80;74.20;;;;;;4956014;28;20050;-81
2021/03/25 06:47:45;;;;;;;23.10;17.35;;;10.70;74.30;;;;;;4955730;29;20097;-81
2021/03/25 06:50:17;;;;;;;21.35;16.27;;;10.70;74.30;;;;;;4956296;28;20031;-81
2021/03/25 06:52:43;;;;;;;21.85;16.65;;;10.70;74.20;;;;;;4955987;28;20027;-81
2021/03/25 06:55:21;;;;;;;20.90;16.90;;;10.70;74.20;;;;;;4961196;28;20042;-80
2021/03/25 06:57:59;;;;;;;23.20;17.52;;;10.70;74.30;;;;;;4955390;28;20023;-81
2021/03/25 07:00:27;;;;;;;23.50;17.20;;;10.70;74.30;;;;;;4956070;28;20031;-81
2021/03/25 07:02:55;;;;;;;22.40;17.13;;;10.70;74.30;;;;;;4939770;29;20027;-82
2021/03/25 07:05:31;;;;;;;22.98;17.73;;;10.70;74.20;;;;;;4956071;29;20047;-81
2021/03/25 07:08:10;;;;;;;21.90;16.70;;;10.70;74.30;;;;;;4956682;28;20464;-82
2021/03/25 07:10:36;;;;;;;22.42;15.88;;;10.70;74.30;;;;;;4956853;28;20097;-81
2021/03/25 07:13:05;;;;;;;22.30;16.73;;;10.70;74.20;;;;;;4951230;29;20509;-81
2021/03/25 07:15:36;;;;;;;21.02;16.13;;;10.70;74.30;;;;;;4947032;28;20095;-80
2021/03/25 07:18:18;;;;;;;22.33;17.00;;;10.70;74.20;;;;;;4955497;28;20055;-81
2021/03/25 07:20:44;;;;;;;20.73;15.60;;;10.70;74.30;;;;;;4958080;28;20031;-81
2021/03/25 07:23:11;;;;;;;21.05;16.17;;;10.70;74.80;;;;;;4939668;29;20031;-81
2021/03/25 07:25:43;;;;;;;22.65;16.75;;;10.70;74.20;;;;;;4955485;28;20141;-80
2021/03/25 07:28:24;;;;;;;19.63;15.55;;;10.70;74.30;;;;;;4956773;28;20034;-81
2021/03/25 07:30:53;;;;;;;22.67;16.80;;;10.70;74.30;;;;;;4944260;28;20042;-81
2021/03/25 07:33:24;;;;;;;22.77;17.02;;;10.70;74.20;;;;;;4955599;28;20066;-81
2021/03/25 07:35:57;;;;;;;21.65;16.50;;;10.70;74.20;;;;;;4955363;28;20031;-81
2021/03/25 07:38:28;;;;;;;20.60;16.05;;;10.70;74.20;;;;;;4950601;28;20031;-81
2021/03/25 07:41:18;;;;;;;22.45;16.98;;;10.70;74.20;;;;;;4954237;28;20050;-81
2021/03/25 07:44:25;;;;;;;21.42;16.27;;;10.60;74.30;;;;;;4954923;28;20047;-81
2021/03/25 07:46:55;;;;;;;21.98;17.15;;;10.60;74.30;;;;;;4944460;28;20039;-81
2021/03/25 07:49:27;;;;;;;21.17;16.65;;;10.70;74.20;;;;;;4954787;28;20118;-80
2021/03/25 07:52:00;;;;;;;23.25;16.98;;;10.70;74.20;;;;;;4956093;28;20047;-81
2021/03/25 07:54:32;;;;;;;21.58;16.25;;;10.70;74.20;;;;;;4968522;28;20050;-81
2021/03/25 07:57:03;;;;;;;25.17;17.63;;;10.70;74.30;;;;;;4968057;28;20046;-81
2021/03/25 07:59:37;;;;;;;23.90;16.98;;;10.70;74.20;;;;;;4955399;28;20035;-80
2021/03/25 08:02:22;;;;;;;22.85;16.42;;;10.70;74.30;;;;;;4956071;28;20039;-82
2021/03/25 08:04:48;;;;;;;21.27;17.00;;;10.70;74.30;;;;;;4956316;28;20129;-81
2021/03/25 08:07:14;;;;;;;22.17;17.42;;;10.70;74.20;;;;;;4954950;28;20051;-82
2021/03/25 08:09:45;;;;;;;24.00;16.70;;;10.70;74.20;;;;;;4954124;28;20480;-81
2021/03/25 08:12:22;;;;;;;22.00;16.75;;;10.70;74.30;;;;;;4954687;28;20027;-82
2021/03/25 08:14:50;;;;;;;22.38;16.50;;;10.70;74.30;;;;;;4954377;28;20039;-82
2021/03/25 08:17:42;;;;;;;24.98;18.95;;;10.80;74.30;;;;;;4954550;28;20036;-82
2021/03/25 08:20:32;;;;;;;23.63;17.98;;;10.80;74.50;;;;;;4932593;28;20544;-82
2021/03/25 08:23:25;;;;;;;21.38;16.48;;;10.80;74.50;;;;;;4954257;28;20027;-82
2021/03/25 08:26:00;;;;;;;23.10;16.95;;;10.80;74.50;;;;;;4955451;28;20035;-82
2021/03/25 08:28:56;;;;;;;21.38;16.27;;;10.80;74.40;;;;;;4954298;29;20062;-82
2021/03/25 08:31:58;;;;;;;23.13;15.57;;;10.80;74.50;;;;;;4954757;28;20032;-82
2021/03/25 08:34:39;;;;;;;22.85;17.50;;;10.80;74.60;;;;;;4952864;28;20043;-81
2021/03/25 08:37:23;;;;;;;21.52;17.35;;;10.80;74.50;;;;;;4955480;28;20125;-81
2021/03/25 08:40:00;;;;;;;21.58;17.05;;;10.90;74.60;;;;;;4969613;28;20067;-82
2021/03/25 08:42:38;;;;;;;23.88;17.23;;;10.90;74.50;;;;;;4954290;28;20027;-82
2021/03/25 08:45:16;;;;;;;22.67;16.88;;;10.90;74.60;;;;;;4954194;28;20047;-82
2021/03/25 08:47:51;;;;;;;23.08;17.70;;;11.00;74.70;;;;;;4953348;28;20040;-82
2021/03/25 08:50:19;;;;;;;;;;;11.00;74.70;;;;;;4949528;28;20054;-82
2021/03/25 08:52:45;;;;;;;21.17;15.95;;;11.00;74.50;;;;;;4953708;28;20001;-82
2021/03/25 08:55:34;;;;;;;22.08;16.60;;;11.10;74.40;;;;;;4955283;28;20182;-81
2021/03/25 08:58:14;;;;;;;22.10;17.45;;;11.10;75.30;;;;;;4938091;29;20032;-82
2021/03/25 09:00:42;;;;;;;25.73;18.52;;;11.10;74.70;;;;;;4935657;28;20484;-82
2021/03/25 09:03:38;;;;;;;29.48;17.83;;;11.10;74.60;;;;;;4930971;29;20024;-81
2021/03/25 09:06:14;;;;;;;27.27;17.42;;;11.20;74.80;;;;;;4951394;28;20039;-82
2021/03/25 09:08:41;;;;;;;22.55;16.25;;;11.20;74.60;;;;;;4953921;28;20032;-81
2021/03/25 09:11:10;;;;;;;28.63;17.58;;;11.30;74.50;;;;;;4953570;28;20023;-81
2021/03/25 09:13:45;;;;;;;25.73;17.35;;;11.30;74.50;;;;;;4937373;29;20472;-81
2021/03/25 09:16:24;;;;;;;23.83;17.75;;;11.40;74.60;;;;;;4940063;28;20090;-82
2021/03/25 09:18:51;;;;;;;26.38;16.42;;;11.50;74.60;;;;;;4953388;28;20054;-81
2021/03/25 09:21:23;;;;;;;25.52;18.00;;;11.50;74.40;;;;;;4937297;28;20034;-81
2021/03/25 09:24:04;;;;;;;20.45;16.35;;;11.50;74.40;;;;;;4953252;28;20105;-81
2021/03/25 09:26:29;;;;;;;22.85;16.58;;;11.60;74.50;;;;;;4955802;28;20465;-82
2021/03/25 09:29:06;;;;;;;24.15;16.20;;;11.60;74.30;;;;;;4969115;28;20106;-81
2021/03/25 09:31:55;;;;;;;23.08;15.70;;;11.70;74.30;;;;;;4954372;28;20306;-81
2021/03/25 09:34:24;;;;;;;21.60;14.73;;;11.80;74.40;;;;;;4926514;28;20055;-82
2021/03/25 09:37:11;;;;;;;22.95;16.58;;;11.80;74.20;;;;;;4953588;28;20094;-81
2021/03/25 09:39:38;;;;;;;25.00;16.15;;;11.80;74.20;;;;;;4953449;28;20027;-81
2021/03/25 09:42:24;;;;;;;20.52;16.00;;;11.90;74.20;;;;;;4953046;28;20086;-81
2021/03/25 09:44:50;;;;;;;21.33;15.85;;;12.00;74.30;;;;;;4953035;28;20047;-81
2021/03/25 09:47:36;;;;;;;20.40;15.68;;;12.00;74.10;;;;;;4954364;28;20038;-81
2021/03/25 09:50:02;;;;;;;21.17;15.23;;;12.10;74.30;;;;;;4936987;29;20036;-81
2021/03/25 09:52:40;;;;;;;21.42;15.55;;;12.20;74.10;;;;;;4937289;29;20473;-81
2021/03/25 09:55:06;;;;;;;21.50;14.95;;;12.20;74.10;;;;;;4953066;28;20050;-81
2021/03/25 09:57:31;;;;;;;21.70;16.52;;;12.30;74.10;;;;;;4953094;28;20027;-81
2021/03/25 10:00:04;;;;;;;20.00;14.95;;;12.30;74.00;;;;;;4954068;28;20027;-82
2021/03/25 10:02:44;;;;;;;22.20;15.85;;;12.40;74.10;;;;;;4952847;28;20047;-82
2021/03/25 10:05:33;;;;;;;19.00;14.32;;;12.40;74.10;;;;;;4970903;28;20027;-81
2021/03/25 10:08:20;;;;;;;19.83;15.90;;;12.50;74.20;;;;;;4956554;28;20113;-81
2021/03/25 10:10:57;;;;;;;18.95;13.88;;;12.60;74.10;;;;;;4956729;28;20031;-82
2021/03/25 10:13:43;;;;;;;19.55;14.85;;;12.70;74.10;;;;;;4956584;28;20035;-82
2021/03/25 10:16:44;;;;;;;19.70;14.25;;;12.70;74.20;;;;;;4956576;28;20063;-81
2021/03/25 10:19:11;;;;;;;18.20;14.15;;;12.80;74.20;;;;;;4926765;29;20067;-82
2021/03/25 10:21:56;;;;;;;19.13;13.55;;;12.80;73.90;;;;;;4972351;28;20023;-82
2021/03/25 10:24:33;;;;;;;18.30;13.88;;;12.90;74.20;;;;;;4956829;28;20106;-82
2021/03/25 10:27:22;;;;;;;18.75;13.23;;;13.00;74.00;;;;;;4956439;28;20479;-82
2021/03/25 10:29:48;;;;;;;18.90;13.32;;;13.00;74.00;;;;;;4957059;28;20055;-81
2021/03/25 10:32:30;;;;;;;16.83;13.23;;;13.10;74.00;;;;;;4957540;28;20019;-81
2021/03/25 10:35:06;;;;;;;17.75;13.55;;;13.10;74.00;;;;;;4954011;29;20039;-81
2021/03/25 10:37:49;;;;;;;17.75;13.25;;;13.20;74.10;;;;;;4972559;28;20409;-82
2021/03/25 10:40:26;;;;;;;18.23;13.25;;;13.30;74.10;;;;;;4956434;28;20035;-82
2021/03/25 10:43:02;;;;;;;17.92;14.25;;;13.30;74.00;;;;;;4957700;28;20027;-81
2021/03/25 10:45:36;;;;;;;17.15;13.68;;;13.40;74.00;;;;;;4976643;28;20073;-81
2021/03/25 10:48:14;;;;;;;16.98;12.55;;;13.50;74.10;;;;;;4958954;28;20139;-81
2021/03/25 10:50:51;;;;;;;16.60;13.80;;;13.50;74.00;;;;;;4959439;28;20058;-82
2021/03/25 10:53:21;;;;;;;16.60;13.07;;;13.60;74.10;;;;;;4959424;28;20026;-82
2021/03/25 10:55:50;;;;;;;16.38;13.15;;;13.60;73.90;;;;;;4959318;28;20110;-82
2021/03/25 10:58:26;;;;;;;17.58;12.98;;;13.70;74.00;;;;;;4959326;28;20023;-82
2021/03/25 11:01:26;;;;;;;18.05;13.35;;;13.80;74.10;;;;;;4976246;28;20033;-83
2021/03/25 11:03:51;;;;;;;16.35;12.75;;;13.90;74.20;;;;;;4918828;29;20070;-83
2021/03/25 11:06:33;;;;;;;15.32;12.38;;;13.90;73.90;;;;;;4958498;28;20464;-82
2021/03/25 11:09:18;;;;;;;15.93;12.70;;;14.00;74.10;;;;;;4959036;28;20057;-82
2021/03/25 11:11:44;;;;;;;16.85;12.57;;;14.00;74.00;;;;;;4944292;29;20027;-82
2021/03/25 11:14:32;;;;;;;19.30;14.23;;;14.10;73.90;;;;;;4937172;28;20042;-81
2021/03/25 11:17:29;;;;;;;15.88;12.38;;;14.10;74.00;;;;;;4974932;28;20069;-82
2021/03/25 11:19:59;;;;;;;15.05;11.60;;;14.20;74.10;;;;;;4957805;28;20458;-82
2021/03/25 11:22:27;;;;;;;16.55;12.10;;;14.30;74.00;;;;;;4958774;28;20022;-82
2021/03/25 11:24:57;;;;;;;15.27;13.23;;;14.30;73.90;;;;;;4942545;28;20023;-81
2021/03/25 11:27:25;;;;;;;16.33;12.85;;;14.30;73.90;;;;;;4958521;28;20027;-81
2021/03/25 11:30:25;;;;;;;18.00;13.77;;;14.40;73.90;;;;;;4958287;28;20368;-81
2021/03/25 11:32:52;;;;;;;15.52;12.48;;;14.50;74.00;;;;;;4961895;28;20474;-81
2021/03/25 11:35:26;;;;;;;17.63;13.07;;;14.60;73.90;;;;;;4956740;28;20388;-80
2021/03/25 11:37:53;;;;;;;14.13;11.93;;;14.60;73.90;;;;;;4958742;28;20055;-82
2021/03/25 11:40:42;;;;;;;15.80;12.07;;;14.60;73.90;;;;;;4958191;28;20262;-82
2021/03/25 11:43:12;;;;;;;14.52;12.00;;;14.70;74.10;;;;;;4958312;28;20039;-83
2021/03/25 11:45:40;;;;;;;16.95;13.13;;;14.70;73.80;;;;;;4958716;28;20159;-83
2021/03/25 11:48:29;;;;;;;14.93;12.75;;;14.70;73.80;;;;;;4958097;28;20065;-82
2021/03/25 11:51:18;;;;;;;15.38;12.10;;;14.80;73.90;;;;;;4971534;28;20023;-81
2021/03/25 11:53:52;;;;;;;16.10;12.48;;;14.90;73.80;;;;;;4975002;28;20050;-82
2021/03/25 11:56:38;;;;;;;17.48;12.30;;;14.90;73.80;;;;;;4942414;28;20389;-81
2021/03/25 11:59:13;;;;;;;15.15;11.95;;;14.90;73.80;;;;;;4956216;28;20031;-81
2021/03/25 12:01:40;;;;;;;;;;;15.00;73.80;;;;;;4958459;28;20037;-81
2021/03/25 12:04:24;;;;;;;13.07;10.20;;;15.00;73.70;;;;;;4941501;28;20377;-81
2021/03/25 12:07:13;;;;;;;13.18;11.18;;;15.00;73.60;;;;;;4957872;28;20034;-81
2021/03/25 12:09:58;;;;;;;14.25;11.52;;;15.00;73.80;;;;;;4957758;28;20023;-82
2021/03/25 12:12:24;;;;;;;13.13;10.82;;;15.00;73.90;;;;;;4957817;28;20030;-81
2021/03/25 12:14:50;;;;;;;12.43;10.43;;;15.10;73.80;;;;;;4941559;28;20035;-81
2021/03/25 12:17:16;;;;;;;14.73;11.02;;;15.10;73.80;;;;;;4973447;28;20041;-81
2021/03/25 12:19:42;;;;;;;12.85;10.57;;;15.10;73.80;;;;;;4957350;28;20073;-81
2021/03/25 12:22:13;;;;;;;12.93;10.98;;;15.20;73.90;;;;;;4974770;28;20077;-82
2021/03/25 12:24:39;;;;;;;11.88;10.25;;;15.20;73.90;;;;;;4957650;28;20039;-82
2021/03/25 12:27:05;;;;;;;13.95;11.15;;;15.20;73.90;;;;;;4957090;28;20034;-81
2021/03/25 12:29:31;;;;;;;11.40;10.13;;;15.30;73.80;;;;;;4941513;28;20039;-82
2021/03/25 12:31:57;;;;;;;12.52;10.73;;;15.30;73.80;;;;;;4941143;28;20037;-81
2021/03/25 12:34:23;;;;;;;11.50;10.05;;;15.30;73.70;;;;;;4956968;28;20042;-81
2021/03/25 12:36:49;;;;;;;12.48;11.00;;;15.40;73.70;;;;;;4940919;28;20027;-81
2021/03/25 12:39:17;;;;;;;12.30;9.82;;;15.40;73.70;;;;;;4956965;28;20038;-81
2021/03/25 12:41:46;;;;;;;11.18;9.48;;;15.40;73.70;;;;;;4941648;28;20031;-81
2021/03/25 12:44:13;;;;;;;12.30;10.25;;;15.40;73.70;;;;;;4956797;28;20118;-82
2021/03/25 12:46:41;;;;;;;12.00;9.40;;;15.40;73.70;;;;;;4973299;28;20034;-82
2021/03/25 12:49:08;;;;;;;12.50;10.60;;;15.50;73.70;;;;;;4972738;28;20546;-81
2021/03/25 12:51:35;;;;;;;12.27;10.13;;;15.40;73.60;;;;;;4956878;28;20023;-82
2021/03/25 12:54:01;;;;;;;12.43;9.90;;;15.50;73.70;;;;;;4940720;28;20073;-82
2021/03/25 12:56:33;;;;;;;11.90;9.45;;;15.50;73.60;;;;;;4956992;28;20027;-81
2021/03/25 12:59:13;;;;;;;12.07;9.90;;;15.50;73.70;;;;;;4972955;28;20023;-82
2021/03/25 13:01:39;;;;;;;12.13;9.60;;;15.50;73.80;;;;;;4956944;28;20038;-82
2021/03/25 13:04:05;;;;;;;11.18;9.15;;;15.50;73.70;;;;;;4972493;28;20053;-82
2021/03/25 13:06:31;;;;;;;11.13;9.63;;;15.50;73.70;;;;;;4973010;28;20435;-81
2021/03/25 13:08:57;;;;;;;10.77;8.82;;;15.50;73.70;;;;;;4956894;28;20037;-82
2021/03/25 13:11:26;;;;;;;10.88;8.82;;;15.50;73.80;;;;;;4973600;28;20026;-81